Time;durP1;ratioP1;P1;durP2;ratioP2;P2;SDS_P1;SDS_P2;PMS_P1;PMS_P2;Temp;Humidity;BMP_temperature;BMP_pressure;BME280_temperature;BME280_humidity;BME280_pressure;Samples;Min_cycle;Max_cycle;Signal;HPM_P1;HPM_P2
2023/07/06 00:00:31;;;;;;;2.35;1.17;;;;;;;;;;4928213;29;20028;-73
2023/07/06 00:02:57;;;;;;;2.83;1.20;;;;;;;;;;4931104;29;20114;-73
2023/07/06 00:05:23;;;;;;;0.90;0.90;;;;;;;;;;4935545;29;20046;-73
2023/07/06 00:07:48;;;;;;;2.45;1.20;;;;;;;;;;4926496;29;20397;-74
2023/07/06 00:10:14;;;;;;;3.88;1.33;;;;;;;;;;4930686;29;20020;-73
2023/07/06 00:12:39;;;;;;;2.05;1.40;;;;;;;;;;4928764;29;20034;-73
2023/07/06 00:15:05;;;;;;;1.85;1.17;;;;;;;;;;4936885;29;20496;-74
2023/07/06 00:17:31;;;;;;;1.90;1.20;;;;;;;;;;4927680;29;20035;-73
2023/07/06 00:19:56;;;;;;;1.70;1.10;;;;;;;;;;4926342;29;20487;-73
2023/07/06 00:22:22;;;;;;;1.30;1.20;;;;;;;;;;4942592;29;20019;-73
2023/07/06 00:24:48;;;;;;;3.67;1.20;;;;;;;;;;4932549;29;20504;-73
2023/07/06 00:27:17;;;;;;;1.27;0.98;;;;;;;;;;4933299;29;20020;-75
2023/07/06 00:29:56;;;;;;;1.98;1.30;;;;;;;;;;4926380;29;20488;-73
2023/07/06 00:32:28;;;;;;;1.67;1.30;;;;;;;;;;4935437;29;20588;-74
2023/07/06 00:34:55;;;;;;;3.03;1.42;;;;;;;;;;4937597;29;20019;-73
2023/07/06 00:37:21;;;;;;;2.40;1.48;;;;;;;;;;4932572;29;20129;-75
2023/07/06 00:39:50;;;;;;;1.88;1.38;;;;;;;;;;4942271;28;20365;-73
2023/07/06 00:42:22;;;;;;;2.00;1.30;;;;;;;;;;4930609;29;20059;-75
2023/07/06 00:44:57;;;;;;;1.48;1.00;;;;;;;;;;4933260;29;20152;-73
2023/07/06 00:47:38;;;;;;;1.20;1.10;;;;;;;;;;4938398;29;20027;-73
2023/07/06 00:50:07;;;;;;;1.48;1.23;;;;;;;;;;4931023;29;20078;-74
2023/07/06 00:52:36;;;;;;;2.67;1.30;;;;;;;;;;4928336;29;20036;-74
2023/07/06 00:55:04;;;;;;;1.55;1.08;;;;;;;;;;4931770;29;20508;-74
2023/07/06 00:57:32;;;;;;;2.13;1.08;;;;;;;;;;4934198;29;20082;-73
2023/07/06 00:59:58;;;;;;;2.38;1.30;;;;;;;;;;4930653;29;20028;-73
2023/07/06 01:02:25;;;;;;;1.77;1.20;;;;;;;;;;4925537;29;20043;-74
2023/07/06 01:04:51;;;;;;;1.65;1.25;;;;;;;;;;4932695;29;20428;-75
2023/07/06 01:07:22;;;;;;;1.85;0.90;;;;;;;;;;4930078;29;20035;-74
2023/07/06 01:09:49;;;;;;;1.52;1.05;;;;;;;;;;4933633;29;20492;-73
2023/07/06 01:12:16;;;;;;;1.20;1.10;;;;;;;;;;4932793;29;20044;-73
2023/07/06 01:14:42;;;;;;;1.00;0.90;;;;;;;;;;4942735;28;20019;-73
2023/07/06 01:17:15;;;;;;;1.48;1.00;;;;;;;;;;4928080;29;20023;-74
2023/07/06 01:20:14;;;;;;;2.85;1.45;;;;;;;;;;4936240;29;20028;-73
2023/07/06 01:22:48;;;;;;;1.60;1.08;;;;;;;;;;4930124;28;20588;-73
2023/07/06 01:25:46;;;;;;;1.92;1.00;;;;;;;;;;4927219;29;20557;-74
2023/07/06 01:29:02;;;;;;;2.17;1.00;;;;;;;;;;4932288;29;20115;-74
2023/07/06 01:31:41;;;;;;;1.63;1.10;;;;;;;;;;4926663;29;20047;-73
2023/07/06 01:34:20;;;;;;;2.03;1.15;;;;;;;;;;4924865;29;20018;-74
2023/07/06 01:37:02;;;;;;;1.40;1.23;;;;;;;;;;4925194;29;20051;-74
2023/07/06 01:39:28;;;;;;;1.55;1.00;;;;;;;;;;4925239;29;20086;-73
2023/07/06 01:42:14;;;;;;;1.33;1.23;;;;;;;;;;4928335;29;20031;-73
2023/07/06 01:44:45;;;;;;;1.38;1.08;;;;;;;;;;4928599;29;20454;-73
2023/07/06 01:47:11;;;;;;;1.13;1.02;;;;;;;;;;4927746;29;20023;-73
2023/07/06 01:49:37;;;;;;;1.67;1.20;;;;;;;;;;4933138;29;20417;-73
2023/07/06 01:52:15;;;;;;;2.22;1.10;;;;;;;;;;4933325;29;20062;-74
2023/07/06 01:55:09;;;;;;;2.65;1.38;;;;;;;;;;4936084;29;20023;-75
2023/07/06 01:57:46;;;;;;;1.90;1.20;;;;;;;;;;4928510;28;20040;-73
2023/07/06 02:00:14;;;;;;;3.20;1.50;;;;;;;;;;4926870;29;20032;-72
2023/07/06 02:02:44;;;;;;;2.10;1.23;;;;;;;;;;4925785;28;20042;-72
2023/07/06 02:05:12;;;;;;;2.00;1.13;;;;;;;;;;4936360;28;20032;-73
2023/07/06 02:07:42;;;;;;;1.60;1.15;;;;;;;;;;4929331;29;20027;-74
2023/07/06 02:10:12;;;;;;;1.52;1.00;;;;;;;;;;4927352;29;20032;-73
2023/07/06 02:12:37;;;;;;;1.65;1.00;;;;;;;;;;4936286;29;20458;-73
2023/07/06 02:15:03;;;;;;;1.30;1.00;;;;;;;;;;4929177;29;20107;-74
2023/07/06 02:17:29;;;;;;;2.83;1.77;;;;;;;;;;4946367;28;20044;-74
2023/07/06 02:19:54;;;;;;;1.80;1.52;;;;;;;;;;4927309;29;20059;-74
2023/07/06 02:22:21;;;;;;;1.80;1.17;;;;;;;;;;4927729;29;20369;-74
2023/07/06 02:24:46;;;;;;;3.05;1.38;;;;;;;;;;4933457;28;20034;-73
2023/07/06 02:27:12;;;;;;;1.30;1.20;;;;;;;;;;4938329;29;20020;-73
2023/07/06 02:29:37;;;;;;;1.35;1.20;;;;;;;;;;4932587;29;20031;-74
2023/07/06 02:32:03;;;;;;;2.63;1.60;;;;;;;;;;4931604;29;20522;-73
2023/07/06 02:34:28;;;;;;;1.45;1.00;;;;;;;;;;4935772;29;20059;-74
2023/07/06 02:36:55;;;;;;;4.13;1.60;;;;;;;;;;4938914;29;20384;-74
2023/07/06 02:39:24;;;;;;;4.15;1.55;;;;;;;;;;4938376;29;20035;-74
2023/07/06 02:41:53;;;;;;;2.20;1.40;;;;;;;;;;4930386;29;20024;-73
2023/07/06 02:44:20;;;;;;;1.92;1.33;;;;;;;;;;4933284;29;21538;-73
2023/07/06 02:46:46;;;;;;;1.55;1.10;;;;;;;;;;4941999;29;20077;-74
2023/07/06 02:49:12;;;;;;;1.75;1.60;;;;;;;;;;4934232;29;20036;-73
2023/07/06 02:51:38;;;;;;;1.63;1.50;;;;;;;;;;4931841;28;20473;-74
2023/07/06 02:54:04;;;;;;;4.15;1.52;;;;;;;;;;4931655;29;20027;-74
2023/07/06 02:56:30;;;;;;;1.58;1.40;;;;;;;;;;4934594;29;20049;-74
2023/07/06 02:58:55;;;;;;;1.88;1.40;;;;;;;;;;4938127;29;20362;-73
2023/07/06 03:01:21;;;;;;;1.92;1.65;;;;;;;;;;4932321;29;20086;-73
2023/07/06 03:03:46;;;;;;;3.55;1.85;;;;;;;;;;4928898;29;20035;-73
2023/07/06 03:06:12;;;;;;;1.75;1.50;;;;;;;;;;4934007;28;20381;-73
2023/07/06 03:08:38;;;;;;;1.80;1.30;;;;;;;;;;4931832;29;20024;-74
2023/07/06 03:11:04;;;;;;;2.03;1.40;;;;;;;;;;4936977;29;20102;-73
2023/07/06 03:13:31;;;;;;;1.63;1.02;;;;;;;;;;4933536;29;20215;-74
2023/07/06 03:15:56;;;;;;;2.53;1.48;;;;;;;;;;4930016;29;20045;-74
2023/07/06 03:18:23;;;;;;;1.65;1.20;;;;;;;;;;4935267;29;20050;-73
2023/07/06 03:20:48;;;;;;;1.55;1.00;;;;;;;;;;4937696;29;20055;-74
2023/07/06 03:23:14;;;;;;;2.15;1.75;;;;;;;;;;4930605;29;20094;-74
2023/07/06 03:25:40;;;;;;;3.72;1.60;;;;;;;;;;4929691;29;20532;-74
2023/07/06 03:28:05;;;;;;;1.85;1.60;;;;;;;;;;4929146;29;20019;-73
2023/07/06 03:30:31;;;;;;;2.53;1.90;;;;;;;;;;4935126;29;20040;-74
2023/07/06 03:32:59;;;;;;;2.20;1.48;;;;;;;;;;4949514;28;20028;-73
2023/07/06 03:35:25;;;;;;;1.60;1.48;;;;;;;;;;4928076;29;20519;-72
2023/07/06 03:37:53;;;;;;;2.20;1.45;;;;;;;;;;4927710;29;20216;-72
2023/07/06 03:40:19;;;;;;;1.20;1.17;;;;;;;;;;4930812;29;20016;-73
2023/07/06 03:42:46;;;;;;;2.28;1.35;;;;;;;;;;4935339;29;20349;-73
2023/07/06 03:45:13;;;;;;;2.55;1.33;;;;;;;;;;4925863;29;20142;-74
2023/07/06 03:47:39;;;;;;;2.45;1.30;;;;;;;;;;4930786;29;20024;-73
2023/07/06 03:50:09;;;;;;;1.60;1.20;;;;;;;;;;4933972;29;20023;-73
2023/07/06 03:52:37;;;;;;;1.90;1.10;;;;;;;;;;4938724;29;20082;-74
2023/07/06 03:55:05;;;;;;;2.22;1.30;;;;;;;;;;4949217;28;20031;-73
2023/07/06 03:57:31;;;;;;;2.45;1.10;;;;;;;;;;4929361;29;20019;-74
2023/07/06 03:59:56;;;;;;;1.73;0.95;;;;;;;;;;4928965;29;20442;-73
2023/07/06 04:02:22;;;;;;;1.40;1.20;;;;;;;;;;4938037;29;20162;-73
2023/07/06 04:04:48;;;;;;;2.28;1.30;;;;;;;;;;4931676;29;20023;-73
2023/07/06 04:07:13;;;;;;;1.20;1.10;;;;;;;;;;4939076;29;20099;-73
2023/07/06 04:09:39;;;;;;;2.20;1.20;;;;;;;;;;4929090;29;20107;-74
2023/07/06 04:12:08;;;;;;;1.73;1.20;;;;;;;;;;4932286;29;20058;-73
2023/07/06 04:14:34;;;;;;;1.30;1.20;;;;;;;;;;4932861;29;20071;-73
2023/07/06 04:16:59;;;;;;;1.70;1.10;;;;;;;;;;4937328;29;20035;-74
2023/07/06 04:19:25;;;;;;;2.88;1.73;;;;;;;;;;4929520;29;20028;-74
2023/07/06 04:21:53;;;;;;;1.33;0.98;;;;;;;;;;4925615;29;20032;-74
2023/07/06 04:24:18;;;;;;;1.25;1.15;;;;;;;;;;4927898;29;20062;-75
2023/07/06 04:26:47;;;;;;;2.20;1.20;;;;;;;;;;4932408;29;20062;-72
2023/07/06 04:29:13;;;;;;;1.92;1.00;;;;;;;;;;4930776;29;20089;-72
2023/07/06 04:31:39;;;;;;;3.10;1.45;;;;;;;;;;4928453;29;20480;-72
2023/07/06 04:34:05;;;;;;;3.58;1.38;;;;;;;;;;4927651;29;20440;-72
2023/07/06 04:36:31;;;;;;;2.88;1.33;;;;;;;;;;4932726;29;20032;-74
2023/07/06 04:39:00;;;;;;;2.22;1.70;;;;;;;;;;4925567;29;20031;-73
2023/07/06 04:41:27;;;;;;;1.05;0.95;;;;;;;;;;4924462;29;20036;-73
2023/07/06 04:43:54;;;;;;;2.30;1.25;;;;;;;;;;4925972;29;20027;-74
2023/07/06 04:46:23;;;;;;;2.67;1.60;;;;;;;;;;4930873;29;20039;-73
2023/07/06 04:48:49;;;;;;;2.00;1.67;;;;;;;;;;4925689;28;20055;-73
2023/07/06 04:51:14;;;;;;;1.95;1.38;;;;;;;;;;4927125;29;20027;-74
2023/07/06 04:53:40;;;;;;;2.22;1.30;;;;;;;;;;4927000;28;20493;-74
2023/07/06 04:56:06;;;;;;;2.97;1.30;;;;;;;;;;4928184;29;20039;-75
2023/07/06 04:58:32;;;;;;;2.78;1.38;;;;;;;;;;4934357;29;20097;-74
2023/07/06 05:01:06;;;;;;;4.20;1.77;;;;;;;;;;4930471;29;20031;-74
2023/07/06 05:03:31;;;;;;;2.60;1.23;;;;;;;;;;4931553;29;20055;-74
2023/07/06 05:06:05;;;;;;;2.83;1.10;;;;;;;;;;4927028;29;20087;-74
2023/07/06 05:08:31;;;;;;;2.55;1.27;;;;;;;;;;4927491;29;20027;-75
2023/07/06 05:10:57;;;;;;;2.08;1.30;;;;;;;;;;4934620;29;20047;-74
2023/07/06 05:13:22;;;;;;;2.05;1.23;;;;;;;;;;4906724;29;20034;-74
2023/07/06 05:15:51;;;;;;;3.25;1.50;;;;;;;;;;4926361;29;20076;-74
2023/07/06 05:18:19;;;;;;;2.15;1.20;;;;;;;;;;4927142;29;20128;-73
2023/07/06 05:20:49;;;;;;;2.03;1.30;;;;;;;;;;4930409;29;20023;-75
2023/07/06 05:23:17;;;;;;;3.03;1.63;;;;;;;;;;4933303;29;20034;-74
2023/07/06 05:25:42;;;;;;;2.35;1.20;;;;;;;;;;4927391;29;20027;-74
2023/07/06 05:28:10;;;;;;;1.65;1.20;;;;;;;;;;4924981;29;20023;-74
2023/07/06 05:30:39;;;;;;;3.15;1.23;;;;;;;;;;4931239;29;20690;-75
2023/07/06 05:33:05;;;;;;;2.33;1.40;;;;;;;;;;4921318;29;20042;-76
2023/07/06 05:35:32;;;;;;;1.90;1.42;;;;;;;;;;4924138;29;20043;-77
2023/07/06 05:37:59;;;;;;;2.00;1.50;;;;;;;;;;4924326;29;20032;-75
2023/07/06 05:40:25;;;;;;;2.58;1.38;;;;;;;;;;4923598;29;20027;-76
2023/07/06 05:42:52;;;;;;;2.38;1.20;;;;;;;;;;4932406;29;20035;-75
2023/07/06 05:45:17;;;;;;;3.03;1.30;;;;;;;;;;4937923;29;20026;-77
2023/07/06 05:47:43;;;;;;;1.92;1.08;;;;;;;;;;4930018;29;20292;-75
2023/07/06 05:50:09;;;;;;;1.40;1.23;;;;;;;;;;4925937;29;20115;-76
2023/07/06 05:52:34;;;;;;;3.80;1.10;;;;;;;;;;4928059;29;20042;-76
2023/07/06 05:54:59;;;;;;;1.42;1.33;;;;;;;;;;4935062;29;20388;-75
2023/07/06 05:57:26;;;;;;;2.30;1.35;;;;;;;;;;4928352;29;20464;-76
2023/07/06 05:59:53;;;;;;;1.00;0.90;;;;;;;;;;4930495;29;20048;-76
2023/07/06 06:02:20;;;;;;;3.47;1.63;;;;;;;;;;4945404;29;20089;-76
2023/07/06 06:04:47;;;;;;;1.00;0.90;;;;;;;;;;4933183;29;20031;-76
2023/07/06 06:07:13;;;;;;;2.92;1.38;;;;;;;;;;4944181;29;20019;-75
2023/07/06 06:09:39;;;;;;;2.03;1.35;;;;;;;;;;4933357;29;20392;-75
2023/07/06 06:12:05;;;;;;;1.92;1.02;;;;;;;;;;4934055;29;20030;-77
2023/07/06 06:14:32;;;;;;;1.90;1.10;;;;;;;;;;4937118;29;20099;-76
2023/07/06 06:16:57;;;;;;;0.82;0.80;;;;;;;;;;4953683;28;20024;-75
2023/07/06 06:19:22;;;;;;;1.90;1.50;;;;;;;;;;4930077;29;20078;-76
2023/07/06 06:21:49;;;;;;;1.48;1.38;;;;;;;;;;4932098;29;20027;-75
2023/07/06 06:24:15;;;;;;;2.00;1.00;;;;;;;;;;4937146;29;20275;-77
2023/07/06 06:26:42;;;;;;;2.90;1.27;;;;;;;;;;4932866;29;20627;-75
2023/07/06 06:29:09;;;;;;;1.45;1.35;;;;;;;;;;4936660;29;20023;-76
2023/07/06 06:31:36;;;;;;;1.27;0.93;;;;;;;;;;4933292;29;20118;-76
2023/07/06 06:34:01;;;;;;;3.47;1.50;;;;;;;;;;4929566;29;20027;-75
2023/07/06 06:36:26;;;;;;;2.80;1.05;;;;;;;;;;4945076;29;20026;-77
2023/07/06 06:38:52;;;;;;;1.15;0.95;;;;;;;;;;4930517;29;20030;-77
2023/07/06 06:41:18;;;;;;;2.97;1.65;;;;;;;;;;4929908;29;20374;-77
2023/07/06 06:43:44;;;;;;;3.60;1.42;;;;;;;;;;4930028;29;20038;-75
2023/07/06 06:46:11;;;;;;;2.15;1.20;;;;;;;;;;4935116;29;20099;-75
2023/07/06 06:48:39;;;;;;;5.35;1.60;;;;;;;;;;4938885;29;20346;-76
2023/07/06 06:51:07;;;;;;;3.30;1.42;;;;;;;;;;4947137;28;20031;-77
2023/07/06 06:53:34;;;;;;;2.15;1.40;;;;;;;;;;4928815;29;20020;-77
2023/07/06 06:55:59;;;;;;;1.98;1.38;;;;;;;;;;4925338;29;20035;-77
2023/07/06 06:58:25;;;;;;;1.80;1.40;;;;;;;;;;4928186;29;20114;-76
2023/07/06 07:00:58;;;;;;;1.92;1.17;;;;;;;;;;4928043;29;20039;-76
2023/07/06 07:03:23;;;;;;;1.48;1.08;;;;;;;;;;4928539;29;20044;-75
2023/07/06 07:05:58;;;;;;;1.13;1.02;;;;;;;;;;4937192;29;20074;-76
2023/07/06 07:08:24;;;;;;;1.50;1.40;;;;;;;;;;4938451;29;20459;-76
2023/07/06 07:10:53;;;;;;;2.20;1.48;;;;;;;;;;4932003;29;20060;-77
2023/07/06 07:13:18;;;;;;;1.92;1.60;;;;;;;;;;4985914;23;20043;-77
2023/07/06 07:15:45;;;;;;;1.10;1.00;;;;;;;;;;4955362;28;20038;-76
2023/07/06 07:18:10;;;;;;;2.00;1.40;;;;;;;;;;4959770;28;20023;-76
2023/07/06 07:20:36;;;;;;;1.50;0.90;;;;;;;;;;4966265;28;20022;-77
2023/07/06 07:23:01;;;;;;;1.60;1.17;;;;;;;;;;4958554;28;20027;-77
2023/07/06 07:25:27;;;;;;;2.78;1.30;;;;;;;;;;4954775;28;20038;-77
2023/07/06 07:27:54;;;;;;;1.52;1.20;;;;;;;;;;4955405;28;20026;-77
2023/07/06 07:30:20;;;;;;;1.80;1.40;;;;;;;;;;4950082;28;20023;-77
2023/07/06 07:32:47;;;;;;;1.70;1.13;;;;;;;;;;4948215;28;20031;-77
2023/07/06 07:35:13;;;;;;;1.77;1.08;;;;;;;;;;4942907;28;20019;-77
2023/07/06 07:37:38;;;;;;;2.58;1.15;;;;;;;;;;4950577;28;20077;-76
2023/07/06 07:40:05;;;;;;;1.55;1.20;;;;;;;;;;4954432;28;20035;-77
2023/07/06 07:42:30;;;;;;;1.35;1.15;;;;;;;;;;4953938;28;20034;-76
2023/07/06 07:44:57;;;;;;;1.90;1.38;;;;;;;;;;4939554;28;20036;-77
2023/07/06 07:47:24;;;;;;;1.77;0.98;;;;;;;;;;4947550;29;20070;-77
2023/07/06 07:49:49;;;;;;;2.47;1.08;;;;;;;;;;4949630;28;20030;-77
2023/07/06 07:52:15;;;;;;;1.95;1.35;;;;;;;;;;4950178;28;20027;-77
2023/07/06 07:54:43;;;;;;;4.00;1.40;;;;;;;;;;4944636;28;20492;-77
2023/07/06 07:57:08;;;;;;;1.58;1.00;;;;;;;;;;4945626;28;20113;-76
2023/07/06 07:59:33;;;;;;;2.08;1.45;;;;;;;;;;4950591;28;20103;-77
2023/07/06 08:02:00;;;;;;;2.95;1.25;;;;;;;;;;4949158;28;20443;-78
2023/07/06 08:04:26;;;;;;;3.40;1.60;;;;;;;;;;4953468;28;20019;-77
2023/07/06 08:06:52;;;;;;;2.78;1.27;;;;;;;;;;4951450;28;20523;-77
2023/07/06 08:09:17;;;;;;;2.53;1.10;;;;;;;;;;4949480;28;20034;-77
2023/07/06 08:11:45;;;;;;;2.15;1.42;;;;;;;;;;4955522;28;20098;-77
2023/07/06 08:14:11;;;;;;;2.42;1.70;;;;;;;;;;4956530;28;20019;-78
2023/07/06 08:16:38;;;;;;;3.05;1.20;;;;;;;;;;4957367;28;20097;-77
2023/07/06 08:19:05;;;;;;;2.75;1.35;;;;;;;;;;4949150;28;20585;-77
2023/07/06 08:21:31;;;;;;;2.55;1.30;;;;;;;;;;4947828;28;20073;-77
2023/07/06 08:23:57;;;;;;;2.70;1.48;;;;;;;;;;4950219;28;20023;-76
2023/07/06 08:26:24;;;;;;;2.40;1.30;;;;;;;;;;4943262;28;20034;-77
2023/07/06 08:28:49;;;;;;;1.27;1.00;;;;;;;;;;4952519;28;20031;-78
2023/07/06 08:31:18;;;;;;;1.80;1.20;;;;;;;;;;4944803;28;20035;-77
2023/07/06 08:33:45;;;;;;;4.63;1.75;;;;;;;;;;4950768;28;20027;-77
2023/07/06 08:36:11;;;;;;;1.77;1.67;;;;;;;;;;4954974;28;20019;-77
2023/07/06 08:38:37;;;;;;;1.40;1.30;;;;;;;;;;4954417;28;20019;-77
2023/07/06 08:41:10;;;;;;;1.85;1.30;;;;;;;;;;4949504;28;20380;-77
2023/07/06 08:43:36;;;;;;;2.55;1.30;;;;;;;;;;4950855;28;20023;-77
2023/07/06 08:46:04;;;;;;;2.58;1.40;;;;;;;;;;4954115;28;20049;-77
2023/07/06 08:48:32;;;;;;;1.35;1.02;;;;;;;;;;4955944;28;20438;-77
2023/07/06 08:51:10;;;;;;;2.65;1.40;;;;;;;;;;4953852;28;20069;-77
2023/07/06 08:53:35;;;;;;;1.98;1.20;;;;;;;;;;4942029;28;20046;-77
2023/07/06 08:56:08;;;;;;;3.92;1.50;;;;;;;;;;4941312;28;20027;-77
2023/07/06 08:58:37;;;;;;;2.08;1.10;;;;;;;;;;4953669;28;20662;-77
2023/07/06 09:01:14;;;;;;;1.20;1.10;;;;;;;;;;4954975;28;20084;-77
2023/07/06 09:03:51;;;;;;;1.60;1.35;;;;;;;;;;4946891;28;20039;-77
2023/07/06 09:06:22;;;;;;;1.77;1.63;;;;;;;;;;4944257;29;20019;-77
2023/07/06 09:08:50;;;;;;;1.92;1.33;;;;;;;;;;4949104;28;20027;-77
2023/07/06 09:11:16;;;;;;;1.52;1.20;;;;;;;;;;4948774;28;20023;-78
2023/07/06 09:14:10;;;;;;;1.30;1.20;;;;;;;;;;4948577;28;20027;-77
2023/07/06 09:16:44;;;;;;;2.45;1.20;;;;;;;;;;4942899;29;20027;-77
2023/07/06 09:19:10;;;;;;;1.48;1.08;;;;;;;;;;4953254;28;20019;-76
2023/07/06 09:21:38;;;;;;;4.07;1.40;;;;;;;;;;4953236;28;20440;-77
2023/07/06 09:24:04;;;;;;;3.55;1.67;;;;;;;;;;4938998;28;20035;-77
2023/07/06 09:26:35;;;;;;;3.08;1.50;;;;;;;;;;4952778;28;20019;-77
2023/07/06 09:29:17;;;;;;;1.48;1.38;;;;;;;;;;4954347;28;20055;-77
2023/07/06 09:31:43;;;;;;;2.13;1.13;;;;;;;;;;4953698;28;20114;-78
2023/07/06 09:34:29;;;;;;;2.65;1.27;;;;;;;;;;4952808;28;20026;-77
2023/07/06 09:36:55;;;;;;;3.08;1.50;;;;;;;;;;4949102;28;20031;-76
2023/07/06 09:39:22;;;;;;;2.40;1.33;;;;;;;;;;4950784;28;20527;-77
2023/07/06 09:41:48;;;;;;;2.65;1.30;;;;;;;;;;4947917;28;20039;-77
2023/07/06 09:44:21;;;;;;;1.35;1.25;;;;;;;;;;4948228;28;20358;-77
2023/07/06 09:46:47;;;;;;;3.30;1.30;;;;;;;;;;4944681;28;20030;-77
2023/07/06 09:49:17;;;;;;;1.38;1.27;;;;;;;;;;4952789;28;20020;-77
2023/07/06 09:51:45;;;;;;;;;;;;;;;;;;4948443;28;20035;-77
2023/07/06 09:54:17;;;;;;;2.45;1.23;;;;;;;;;;4948936;28;19914;-77
2023/07/06 09:56:44;;;;;;;2.20;1.50;;;;;;;;;;4946700;28;20015;-77
2023/07/06 09:59:11;;;;;;;1.67;1.50;;;;;;;;;;4948576;28;20058;-77
2023/07/06 10:02:02;;;;;;;2.47;1.25;;;;;;;;;;4946771;28;20039;-78
2023/07/06 10:04:50;;;;;;;1.45;1.00;;;;;;;;;;4952911;28;20062;-77
2023/07/06 10:07:25;;;;;;;1.30;1.20;;;;;;;;;;4951613;28;20111;-77
2023/07/06 10:10:22;;;;;;;1.00;0.90;;;;;;;;;;4947797;28;20102;-77
2023/07/06 10:12:58;;;;;;;4.15;1.10;;;;;;;;;;4946407;28;20082;-78
2023/07/06 10:15:42;;;;;;;2.65;0.90;;;;;;;;;;4948746;28;20027;-77
2023/07/06 10:18:15;;;;;;;4.22;1.73;;;;;;;;;;4940432;28;20102;-77
2023/07/06 10:20:51;;;;;;;2.95;1.58;;;;;;;;;;4948005;28;20098;-77
2023/07/06 10:23:32;;;;;;;3.80;1.50;;;;;;;;;;4946986;28;20570;-77
2023/07/06 10:26:08;;;;;;;1.95;1.40;;;;;;;;;;4944827;28;20035;-77
2023/07/06 10:28:42;;;;;;;2.15;1.33;;;;;;;;;;4947054;28;20027;-77
2023/07/06 10:31:10;;;;;;;2.28;1.20;;;;;;;;;;4950466;28;20077;-78
2023/07/06 10:33:44;;;;;;;2.63;1.20;;;;;;;;;;4952471;28;20038;-77
2023/07/06 10:36:13;;;;;;;1.15;1.08;;;;;;;;;;4947445;28;20658;-77
2023/07/06 10:38:38;;;;;;;2.20;1.48;;;;;;;;;;4945372;28;20049;-77
2023/07/06 10:41:10;;;;;;;2.50;1.23;;;;;;;;;;4949080;28;20019;-76
2023/07/06 10:43:38;;;;;;;1.67;1.40;;;;;;;;;;4942784;28;20058;-77
2023/07/06 10:46:34;;;;;;;1.65;1.42;;;;;;;;;;4949307;28;20170;-77
2023/07/06 10:49:20;;;;;;;1.80;1.27;;;;;;;;;;4946658;28;20038;-77
2023/07/06 10:51:52;;;;;;;2.10;1.30;;;;;;;;;;4954798;28;20126;-76
2023/07/06 10:54:32;;;;;;;1.20;1.00;;;;;;;;;;4949256;28;20020;-77
2023/07/06 10:57:02;;;;;;;1.17;0.90;;;;;;;;;;4951861;28;20058;-77
2023/07/06 10:59:49;;;;;;;;;;;;;;;;;;4956155;28;20050;-78
2023/07/06 11:02:25;;;;;;;1.65;0.98;;;;;;;;;;4947633;28;20340;-76
2023/07/06 11:04:53;;;;;;;1.30;0.98;;;;;;;;;;4950641;28;20542;-77
2023/07/06 11:07:35;;;;;;;1.52;1.10;;;;;;;;;;4948432;28;20023;-77
2023/07/06 11:10:22;;;;;;;1.27;0.90;;;;;;;;;;4949841;28;20059;-76
2023/07/06 11:12:57;;;;;;;1.80;1.10;;;;;;;;;;4953179;28;20038;-77
2023/07/06 11:15:44;;;;;;;1.42;0.95;;;;;;;;;;4947527;28;20102;-77
2023/07/06 11:18:22;;;;;;;1.50;1.00;;;;;;;;;;4947799;28;20023;-78
2023/07/06 11:21:07;;;;;;;1.45;1.10;;;;;;;;;;4950337;28;20114;-76
2023/07/06 11:23:48;;;;;;;1.55;1.10;;;;;;;;;;4949891;28;20122;-77
2023/07/06 11:26:28;;;;;;;1.70;0.80;;;;;;;;;;4947957;28;20035;-77
2023/07/06 11:28:53;;;;;;;;;;;;;;;;;;4956213;28;20376;-78
2023/07/06 11:31:43;;;;;;;1.33;1.10;;;;;;;;;;4952423;28;19946;-77
2023/07/06 11:34:30;;;;;;;1.73;1.10;;;;;;;;;;4930877;28;20078;-77
2023/07/06 11:37:26;;;;;;;2.53;0.93;;;;;;;;;;4947091;28;20035;-77
2023/07/06 11:40:06;;;;;;;2.05;1.10;;;;;;;;;;4950750;28;20023;-77
2023/07/06 11:43:25;;;;;;;1.27;0.90;;;;;;;;;;4950633;28;20031;-77
2023/07/06 11:46:25;;;;;;;1.23;1.02;;;;;;;;;;4878753;29;20040;-77
2023/07/06 11:49:09;;;;;;;1.20;1.03;;;;;;;;;;4878020;29;20055;-77
2023/07/06 11:51:37;;;;;;;2.53;1.00;;;;;;;;;;4935954;28;20046;-77
2023/07/06 11:54:05;;;;;;;1.35;1.05;;;;;;;;;;4946679;28;20034;-77
2023/07/06 11:57:13;;;;;;;1.05;0.98;;;;;;;;;;4951236;28;20781;-77
2023/07/06 11:59:40;;;;;;;1.33;0.90;;;;;;;;;;4955486;28;20043;-77
2023/07/06 12:02:20;;;;;;;0.82;0.80;;;;;;;;;;4948507;28;20373;-77
2023/07/06 12:04:46;;;;;;;1.58;1.10;;;;;;;;;;4953839;28;20042;-77
2023/07/06 12:07:25;;;;;;;2.53;1.10;;;;;;;;;;4959547;28;20054;-77
2023/07/06 12:09:50;;;;;;;1.70;1.02;;;;;;;;;;4954416;28;20035;-77
2023/07/06 12:12:17;;;;;;;1.00;0.80;;;;;;;;;;4944999;28;20070;-77
2023/07/06 12:14:43;;;;;;;0.90;0.90;;;;;;;;;;4950365;28;20069;-77
2023/07/06 12:17:11;;;;;;;1.35;1.17;;;;;;;;;;4948762;28;20122;-77
2023/07/06 12:19:41;;;;;;;2.25;1.10;;;;;;;;;;4951034;28;20028;-77
2023/07/06 12:22:13;;;;;;;4.28;1.27;;;;;;;;;;4939986;28;20150;-77
2023/07/06 12:24:39;;;;;;;2.72;1.05;;;;;;;;;;4947066;28;20039;-77
2023/07/06 12:27:14;;;;;;;2.53;0.70;;;;;;;;;;4961719;28;20035;-77
2023/07/06 12:29:41;;;;;;;0.80;0.80;;;;;;;;;;4961762;28;20062;-77
2023/07/06 12:32:15;;;;;;;1.92;0.80;;;;;;;;;;4940610;28;20436;-77
2023/07/06 12:34:44;;;;;;;4.95;0.88;;;;;;;;;;4947799;28;20102;-77
2023/07/06 12:37:11;;;;;;;1.42;0.80;;;;;;;;;;4947509;28;20027;-77
2023/07/06 12:39:41;;;;;;;2.28;0.90;;;;;;;;;;4945925;28;20031;-77
2023/07/06 12:42:18;;;;;;;0.75;0.73;;;;;;;;;;4950117;28;20110;-77
2023/07/06 12:44:46;;;;;;;1.33;1.05;;;;;;;;;;4947123;28;20032;-77
2023/07/06 12:47:32;;;;;;;4.13;0.90;;;;;;;;;;4945747;28;20473;-77
2023/07/06 12:50:00;;;;;;;1.00;1.00;;;;;;;;;;4946742;28;20498;-77
2023/07/06 12:52:28;;;;;;;1.52;0.95;;;;;;;;;;4944184;28;20097;-77
2023/07/06 12:54:55;;;;;;;1.33;0.93;;;;;;;;;;4949412;28;20480;-77
2023/07/06 12:57:26;;;;;;;0.90;0.73;;;;;;;;;;4945845;28;20051;-77
2023/07/06 13:00:14;;;;;;;1.10;1.00;;;;;;;;;;4954087;28;20031;-76
2023/07/06 13:02:40;;;;;;;1.13;0.98;;;;;;;;;;4953800;28;20479;-77
2023/07/06 13:05:14;;;;;;;1.15;0.80;;;;;;;;;;4953499;28;20065;-77
2023/07/06 13:07:41;;;;;;;3.58;1.10;;;;;;;;;;4946722;28;20061;-77
2023/07/06 13:10:16;;;;;;;2.38;1.02;;;;;;;;;;4950401;28;20034;-77
2023/07/06 13:12:46;;;;;;;1.35;0.95;;;;;;;;;;4948442;28;20391;-77
2023/07/06 13:15:24;;;;;;;1.60;1.10;;;;;;;;;;4951632;28;20023;-77
2023/07/06 13:17:53;;;;;;;1.77;0.90;;;;;;;;;;4948486;28;20034;-77
2023/07/06 13:20:18;;;;;;;0.75;0.70;;;;;;;;;;4947665;28;20034;-77
2023/07/06 13:22:44;;;;;;;2.85;1.10;;;;;;;;;;4954761;28;20027;-77
2023/07/06 13:25:17;;;;;;;2.38;1.40;;;;;;;;;;4953964;28;20051;-77
2023/07/06 13:27:45;;;;;;;1.50;1.10;;;;;;;;;;4943972;28;20031;-78
2023/07/06 13:30:12;;;;;;;1.25;0.90;;;;;;;;;;4947400;28;20020;-77
2023/07/06 13:32:40;;;;;;;2.25;1.15;;;;;;;;;;4945457;28;20027;-77
2023/07/06 13:35:07;;;;;;;1.08;1.00;;;;;;;;;;4948646;28;20048;-77
2023/07/06 13:37:34;;;;;;;1.05;0.90;;;;;;;;;;4946765;28;20063;-77
2023/07/06 13:40:04;;;;;;;2.17;1.23;;;;;;;;;;4941897;28;20421;-77
2023/07/06 13:42:30;;;;;;;1.10;1.00;;;;;;;;;;4942878;28;20027;-77
2023/07/06 13:44:57;;;;;;;0.88;0.88;;;;;;;;;;4945084;28;20285;-78
2023/07/06 13:47:23;;;;;;;1.50;0.95;;;;;;;;;;4944042;28;20031;-77
2023/07/06 13:49:50;;;;;;;1.13;0.93;;;;;;;;;;4944086;28;20027;-77
2023/07/06 13:52:15;;;;;;;1.25;0.98;;;;;;;;;;4942100;28;20063;-77
2023/07/06 13:54:43;;;;;;;1.52;1.20;;;;;;;;;;4947006;28;20051;-78
2023/07/06 13:57:08;;;;;;;1.58;1.05;;;;;;;;;;4949450;28;20031;-76
2023/07/06 13:59:35;;;;;;;1.23;1.08;;;;;;;;;;4944579;28;20042;-78
2023/07/06 14:02:02;;;;;;;0.85;0.85;;;;;;;;;;4945863;28;20023;-77
2023/07/06 14:04:31;;;;;;;1.48;1.05;;;;;;;;;;4944560;28;20050;-77
2023/07/06 14:06:57;;;;;;;1.63;1.00;;;;;;;;;;4944502;28;20035;-77
2023/07/06 14:09:23;;;;;;;1.35;1.25;;;;;;;;;;4946141;28;20023;-77
2023/07/06 14:11:48;;;;;;;1.08;1.00;;;;;;;;;;4945424;28;20567;-77
2023/07/06 14:14:15;;;;;;;1.55;0.80;;;;;;;;;;4943103;28;20038;-77
2023/07/06 14:16:40;;;;;;;1.35;1.20;;;;;;;;;;4947614;28;20023;-78
2023/07/06 14:19:06;;;;;;;1.10;1.02;;;;;;;;;;4943483;28;20078;-78
2023/07/06 14:21:33;;;;;;;1.55;1.10;;;;;;;;;;4945284;28;20472;-77
2023/07/06 14:23:59;;;;;;;1.02;0.77;;;;;;;;;;4940694;28;20049;-77
2023/07/06 14:26:26;;;;;;;5.07;1.50;;;;;;;;;;4941368;28;20035;-77
2023/07/06 14:28:51;;;;;;;1.80;1.15;;;;;;;;;;4948278;28;20020;-78
2023/07/06 14:31:18;;;;;;;1.33;1.23;;;;;;;;;;4949661;28;20054;-77
2023/07/06 14:33:44;;;;;;;1.85;1.10;;;;;;;;;;4950332;28;20121;-77
2023/07/06 14:36:11;;;;;;;1.13;1.00;;;;;;;;;;4945536;28;20027;-77
2023/07/06 14:38:36;;;;;;;1.35;1.00;;;;;;;;;;4943908;28;20031;-78
2023/07/06 14:41:02;;;;;;;1.40;1.30;;;;;;;;;;4946706;28;20569;-77
2023/07/06 14:43:28;;;;;;;2.85;1.50;;;;;;;;;;4948708;28;20035;-77
2023/07/06 14:45:55;;;;;;;2.55;1.52;;;;;;;;;;4949328;28;20035;-77
2023/07/06 14:48:20;;;;;;;2.03;1.20;;;;;;;;;;4949115;28;20035;-78
2023/07/06 14:50:45;;;;;;;2.00;1.30;;;;;;;;;;4949973;28;20031;-77
2023/07/06 14:53:11;;;;;;;1.50;1.40;;;;;;;;;;4948482;28;20424;-78
2023/07/06 14:55:37;;;;;;;1.30;1.20;;;;;;;;;;4949935;28;20050;-77
2023/07/06 14:58:03;;;;;;;1.80;1.17;;;;;;;;;;4947969;28;20066;-77